Local Weather and METAR Reports

The data for these readings is taken from the NOAA Wesbite.  Please make sure you conduct your own weather check before flying.

METAR:

EGHI 190920Z 00000KT 9999 SCT045 02/01 Q1017


QNH (Hectopascals): 1017


QNH (Inches Mercury): 30.03


TEMPERATURE (Degrees Celsius): 2°


DEW POINT TEMPERATURE (Degrees Celsius): 1°

Live Radar

Radar Data provided by FlightRadar24

Local NOTAMS

Whilst we will strive to keep local NOTAM information up to date, please make sure that you conduct your own review of local reports before flying.

Loading RSS Feed

© Hampshire Aeroplane Club 2017 – 2019